Fort Bragg, CA (95437)

1:20 AM PDT on August 30, 2015 (GMT -0700)
Caspar Headlands | | Change Station
CLOSE
Current Station
Personal Weather Station
Location: Caspar, CA
Elevation: 69 ft
Nearby Weather Stations

Elev 69 ft 39.37 °N, 123.82 °W | Updated 40 seconds ago

Overcast
Overcast
62.6 °F
Feels Like 62.6 °F
N
0.0
Wind Variable Wind from SSE
Gusts 0.0 mph

Today
High -- | Low -- °F
--% Chance of Precip.
Yesterday
High -- | Low -- °F
Precip. -- in
6:41 AM 7:49 PM
Full, 100% visible
Pressure 30.01 in
Visibility 10.0 miles
Clouds Overcast 3200 ft
Dew Point 58 °F
Humidity 84%
Rainfall 0.00 in
Snow Depth Not available.
UV 0 out of 12
Pollen 3.70 out of 12
Air Quality Not available.
Flu Activity Not available.
METAR KUKI 300756Z AUTO 26003KT 10SM OVC032 17/12 A3003 RMK AO2 SLP162 T01670117 402830156
Pressure 30.01 in
Visibility 10.0 miles
Clouds Overcast 3200 ft
Dew Point 58 °F
Humidity 84%
Rainfall 0.00 in
Snow Depth Not available.
UV 0 out of 12
Pollen 3.70 out of 12
Air Quality Not available.
Flu Activity Not available.
METAR KUKI 300756Z AUTO 26003KT 10SM OVC032 17/12 A3003 RMK AO2 SLP162 T01670117 402830156

10-Day Weather Forecast

×

Almanac

Astronomy

Aug. 30, 2015 Rise Set
Actual Time
Civil Twilight
Nautical Twilight
Astronomical Twilight
Moon
Length of Visible Light
Length of Day
Tomorrow will be .
, % of the Moon is Illuminated

Today's Extremes

State Highs State Lows

Community

WunderPhotos

Upload Photos

1,850,909 photos uploaded!

WunderBlogs® & News

Nearby

Air Quality

  Air Quality AQ Index Pollutant
Not available.

Snow Depth

Station Depth Elevation

Earthquake Activity

City Distance Mag. Time & Date
Minimum magnitude displayed is 2.5.

Coastal Water Temperatures

Place Temperature

Stations

Nearby Weather Stations

Station Location Temp. Windchill Dew Point Humidity Wind Precip. Elev Updated Type